ADDS METAR Data INFO
IDs: Format: Raw Decoded Include TAF

Data at: 2250 UTC 22 Jun 2018

KPYM 222152Z AUTO 14007KT 10SM CLR 21/07 A3006 RMK AO2 SLP178 T02060072
KPYM 222052Z AUTO 18007KT 10SM CLR 21/07 A3006 RMK AO2 SLP179 T02110067 55000
KPYM 221952Z AUTO 13009KT 10SM CLR 22/09 A3006 RMK AO2 SLP178 T02220089
KPYM 221852Z AUTO 10011KT 10SM CLR 23/10 A3006 RMK AO2 SLP178 T02330100
KPYM 221752Z AUTO 11008KT 10SM CLR 23/11 A3006 RMK AO2 SLP179 T02280111 10233 20172 50002
KPYM 221652Z AUTO 06008KT 030V090 10SM CLR 23/11 A3007 RMK AO2 SLP181 T02280106
KPYM 221552Z AUTO 04010KT 10SM CLR 22/13 A3006 RMK AO2 SLP179 T02170133
KPYM 221452Z AUTO 05010KT 10SM CLR 21/14 A3006 RMK AO2 SLP178 T02110144 51009
KPYM 221352Z AUTO 04009KT 10SM CLR 21/15 A3006 RMK AO2 SLP178 T02110150
KPYM 221252Z AUTO 08006KT 10SM FEW012 19/15 A3005 RMK AO2 SLP174 T01890150
KPYM 221237Z AUTO 09006KT 10SM FEW011 19/15 A3004 RMK AO2 T01890150
KPYM 221221Z AUTO 03007KT 10SM BKN010 19/15 A3004 RMK AO2 T01890150
KPYM 221152Z AUTO 06006KT 10SM OVC008 17/15 A3003 RMK AO2 SLP168 T01720150 10172 20133 51024
KPYM 221102Z AUTO 08005KT 10SM BKN008 16/15 A3001 RMK AO2 CIG 006V012 T01610150
KPYM 221052Z AUTO 10006KT 10SM SCT007 16/14 A3001 RMK AO2 SLP161 T01610144
KPYM 221015Z AUTO 06005KT 10SM SCT006 16/14 A3000 RMK AO2 T01560144
KPYM 220952Z AUTO 03007KT 10SM OVC005 16/14 A2999 RMK AO2 SLP153 T01560144
KPYM 220852Z AUTO 05005KT 10SM BKN006 16/15 A2996 RMK AO2 SLP144 T01610150 53015
KPYM 220752Z AUTO 04007KT 10SM SCT004 16/16 A2993 RMK AO2 SLP136 T01610156
KPYM 220716Z AUTO 03007KT 10SM SCT004 16/15 A2993 RMK AO2 T01610150
KPYM 220652Z AUTO 03006KT 9SM OVC004 16/16 A2993 RMK AO2 SLP134 T01610156
KPYM 220633Z AUTO 03006KT 10SM BKN004 16/15 A2992 RMK AO2 T01560150
KPYM 220625Z AUTO 01004KT 10SM SCT004 15/14 A2992 RMK AO2 T01500144
KPYM 220552Z AUTO 03003KT 10SM CLR 13/12 A2991 RMK AO2 SLP129 T01330122 10200 20133 52009
KPYM 220452Z AUTO 00000KT 10SM CLR 14/13 A2991 RMK AO2 SLP126 T01390133 402670139
KPYM 220352Z AUTO 00000KT 10SM CLR 15/14 A2989 RMK AO2 SLP122 T01500139
KPYM 220252Z AUTO 00000KT 10SM CLR 16/14 A2988 RMK AO2 SLP119 T01610144 51021
KPYM 220152Z AUTO 00000KT 10SM SCT080 17/14 A2986 RMK AO2 SLP112 T01720144
KPYM 220052Z AUTO 00000KT 10SM OVC090 19/15 A2984 RMK AO2 SLP106 T01890150
KPYM 212352Z AUTO 00000KT 10SM FEW110 20/14 A2982 RMK AO2 SLP098 T02000144 10256 20200 51013
KPYM 212252Z AUTO 05004KT 10SM CLR 22/14 A2981 RMK AO2 SLP095 T02170144
KPYM 212152Z AUTO 04009KT 10SM CLR 22/13 A2980 RMK AO2 SLP091 T02170133
KPYM 212052Z AUTO 03008KT 10SM CLR 23/13 A2979 RMK AO2 SLP086 T02280133 53007
KPYM 211952Z AUTO 05008KT 10SM CLR 24/13 A2977 RMK AO2 SLP080 T02390133
KPYM 211852Z AUTO 06010KT 10SM CLR 24/13 A2976 RMK AO2 SLP078 T02440128
KPYM 211752Z AUTO 03011KT 10SM CLR 26/14 A2976 RMK AO2 SLP079 T02610139 10267 20211 56007
KPYM 211652Z AUTO 09006KT 10SM BKN039 26/17 A2977 RMK AO2 SLP078 T02610167
KPYM 211552Z AUTO 00000KT 10SM FEW047 26/16 A2978 RMK AO2 SLP082 T02560156
KPYM 211452Z AUTO 16005KT 10SM CLR 24/15 A2979 RMK AO2 SLP086 T02440150 51004
KPYM 211352Z AUTO 22008KT 10SM CLR 23/16 A2978 RMK AO2 SLP085 T02330161
KPYM 211252Z AUTO 22007KT 10SM CLR 22/17 A2979 RMK AO2 SLP086 T02220172
KPYM 211152Z AUTO 22007KT 10SM CLR 21/18 A2977 RMK AO2 SLP082 T02110178 10211 20167 51008
KPYM 211052Z AUTO 21004KT 10SM CLR 19/18 A2977 RMK AO2 SLP080 T01890178